createdAt,value
2023-06-14T00:02:26.749Z,4.38
2023-06-14T00:04:54.762Z,3.90
2023-06-14T00:07:35.362Z,3.65
2023-06-14T00:10:03.764Z,3.97
2023-06-14T00:12:31.629Z,3.60
2023-06-14T00:14:59.516Z,4.25
2023-06-14T00:17:31.349Z,4.03
2023-06-14T00:19:59.392Z,3.75
2023-06-14T00:22:29.660Z,3.80
2023-06-14T00:24:58.025Z,4.05
2023-06-14T00:27:26.145Z,4.22
2023-06-14T00:29:54.050Z,3.70
2023-06-14T00:32:25.750Z,3.40
2023-06-14T00:34:55.119Z,3.88
2023-06-14T00:37:23.074Z,4.40
2023-06-14T00:39:50.915Z,4.20
2023-06-14T00:42:27.772Z,4.28
2023-06-14T00:44:56.360Z,5.20
2023-06-14T00:47:24.684Z,4.90
2023-06-14T00:49:53.040Z,4.88
2023-06-14T00:52:23.193Z,5.07
2023-06-14T00:54:51.057Z,4.70
2023-06-14T00:57:18.984Z,9.00
2023-06-14T00:59:49.247Z,9.55
2023-06-14T01:02:18.036Z,7.82
2023-06-14T01:05:04.616Z,6.05
2023-06-14T01:07:37.830Z,6.43
2023-06-14T01:10:11.305Z,5.15
2023-06-14T01:12:41.953Z,5.45
2023-06-14T01:15:10.595Z,5.68
2023-06-14T01:17:44.852Z,5.40
2023-06-14T01:20:15.800Z,5.13
2023-06-14T01:23:01.969Z,5.30
2023-06-14T01:25:33.692Z,5.38
2023-06-14T01:28:04.585Z,5.25
2023-06-14T01:30:34.534Z,5.00
2023-06-14T01:33:03.203Z,5.20
2023-06-14T01:35:33.306Z,4.75
2023-06-14T01:38:04.578Z,4.55
2023-06-14T01:40:35.368Z,5.10
2023-06-14T01:43:04.281Z,5.15
2023-06-14T01:45:32.830Z,4.97
2023-06-14T01:48:01.453Z,5.10
2023-06-14T01:50:30.857Z,5.53
2023-06-14T01:52:59.635Z,4.82
2023-06-14T01:55:27.653Z,5.15
2023-06-14T01:57:56.906Z,4.88
2023-06-14T02:00:24.912Z,4.88
2023-06-14T02:02:54.332Z,5.10
2023-06-14T02:05:22.497Z,5.25
2023-06-14T02:07:51.628Z,5.30
2023-06-14T02:10:20.043Z,5.20
2023-06-14T02:12:49.080Z,5.55
2023-06-14T02:15:20.532Z,5.10
2023-06-14T02:17:50.527Z,5.00
2023-06-14T02:20:19.551Z,4.60
2023-06-14T02:22:47.566Z,5.53
2023-06-14T02:25:16.588Z,4.70
2023-06-14T02:27:44.626Z,5.35
2023-06-14T02:30:13.547Z,5.10
2023-06-14T02:32:44.131Z,5.40
2023-06-14T02:35:14.490Z,5.32
2023-06-14T02:37:43.776Z,5.18
2023-06-14T02:40:12.945Z,5.10
2023-06-14T02:42:41.206Z,5.07
2023-06-14T02:45:10.054Z,5.22
2023-06-14T02:47:40.288Z,5.10
2023-06-14T02:50:10.553Z,4.93
2023-06-14T02:52:39.152Z,5.25
2023-06-14T02:55:07.476Z,5.32
2023-06-14T02:57:35.409Z,5.20
2023-06-14T03:00:04.655Z,5.07
2023-06-14T03:02:34.960Z,5.75
2023-06-14T03:05:04.672Z,5.97
2023-06-14T03:07:35.670Z,5.22
2023-06-14T03:10:06.487Z,5.50
2023-06-14T03:12:34.481Z,5.25
2023-06-14T03:15:05.915Z,5.50
2023-06-14T03:17:40.202Z,6.10
2023-06-14T03:20:10.523Z,6.18
2023-06-14T03:22:40.514Z,5.90
2023-06-14T03:25:11.535Z,5.90
2023-06-14T03:27:41.332Z,5.88
2023-06-14T03:30:10.385Z,6.22
2023-06-14T03:32:39.084Z,6.32
2023-06-14T03:35:08.332Z,7.20
2023-06-14T03:37:36.333Z,6.82
2023-06-14T03:40:07.771Z,7.38
2023-06-14T03:42:41.135Z,6.45
2023-06-14T03:45:09.975Z,6.22
2023-06-14T03:47:38.551Z,6.10
2023-06-14T03:50:07.135Z,7.03
2023-06-14T03:52:36.076Z,7.10
2023-06-14T03:57:37.133Z,6.57
2023-06-14T04:00:10.312Z,7.20
2023-06-14T04:02:42.386Z,7.25
2023-06-14T04:05:12.583Z,7.38
2023-06-14T04:07:46.896Z,7.50
2023-06-14T04:10:16.942Z,7.75
2023-06-14T04:12:47.821Z,10.70
2023-06-14T04:15:21.400Z,9.30
2023-06-14T04:17:51.993Z,7.10
2023-06-14T04:20:21.503Z,7.75
2023-06-14T04:22:50.453Z,7.38
2023-06-14T04:25:23.723Z,7.57
2023-06-14T04:27:53.955Z,7.95
2023-06-14T04:30:28.202Z,8.10
2023-06-14T04:32:57.344Z,8.30
2023-06-14T04:35:26.539Z,9.07
2023-06-14T04:37:56.255Z,8.30
2023-06-14T04:40:26.127Z,8.77
2023-06-14T04:42:55.566Z,8.10
2023-06-14T04:45:24.958Z,8.88
2023-06-14T04:47:58.618Z,8.30
2023-06-14T04:50:28.548Z,8.02
2023-06-14T04:52:57.905Z,9.50
2023-06-14T04:55:28.042Z,9.20
2023-06-14T04:57:55.967Z,8.63
2023-06-14T05:00:24.579Z,8.18
2023-06-14T05:02:54.334Z,9.80
2023-06-14T05:05:22.569Z,9.55
2023-06-14T05:07:50.971Z,9.63
2023-06-14T05:10:19.026Z,9.50
2023-06-14T05:12:51.271Z,9.18
2023-06-14T05:15:20.391Z,8.63
2023-06-14T05:17:49.267Z,8.50
2023-06-14T05:20:17.070Z,8.23
2023-06-14T05:22:45.218Z,8.93
2023-06-14T05:25:13.170Z,8.73
2023-06-14T05:27:42.869Z,7.95
2023-06-14T05:30:13.122Z,7.00
2023-06-14T05:32:41.055Z,6.53
2023-06-14T05:35:09.277Z,7.32
2023-06-14T05:37:37.158Z,6.95
2023-06-14T05:40:07.044Z,7.18
2023-06-14T05:42:35.106Z,6.90
2023-06-14T05:45:03.253Z,7.47
2023-06-14T05:47:32.690Z,7.05
2023-06-14T05:50:00.568Z,6.85
2023-06-14T05:52:29.206Z,7.10
2023-06-14T05:54:57.654Z,6.45
2023-06-14T05:57:25.495Z,6.80
2023-06-14T05:59:53.438Z,6.43
2023-06-14T06:02:21.376Z,7.13
2023-06-14T06:04:50.690Z,6.28
2023-06-14T06:07:18.912Z,6.25
2023-06-14T06:09:46.998Z,5.82
2023-06-14T06:12:14.839Z,5.95
2023-06-14T06:14:42.783Z,6.40
2023-06-14T06:17:10.970Z,5.50
2023-06-14T06:19:38.918Z,5.80
2023-06-14T06:22:09.233Z,6.40
2023-06-14T06:24:37.252Z,5.90
2023-06-14T06:27:05.541Z,5.70
2023-06-14T06:29:33.783Z,5.80
2023-06-14T06:32:01.725Z,6.57
2023-06-14T06:34:29.762Z,6.20
2023-06-14T06:36:57.706Z,5.57
2023-06-14T06:39:29.162Z,5.43
2023-06-14T06:41:58.737Z,5.88
2023-06-14T06:44:34.393Z,5.65
2023-06-14T06:47:03.497Z,6.40
2023-06-14T06:49:31.595Z,6.40
2023-06-14T06:52:03.226Z,5.30
2023-06-14T06:54:32.590Z,5.88
2023-06-14T06:57:01.113Z,5.70
2023-06-14T06:59:28.991Z,5.55
2023-06-14T07:01:57.040Z,5.70
2023-06-14T07:04:25.178Z,5.82
2023-06-14T07:06:53.066Z,5.90
2023-06-14T07:09:21.047Z,4.70
2023-06-14T07:11:50.452Z,5.05
2023-06-14T07:14:18.393Z,4.78
2023-06-14T07:16:47.398Z,5.15
2023-06-14T07:19:15.387Z,5.50
2023-06-14T07:21:43.277Z,4.97
2023-06-14T07:24:11.551Z,5.03
2023-06-14T07:26:39.641Z,4.68
2023-06-14T07:29:08.888Z,4.90
2023-06-14T07:31:36.842Z,4.00
2023-06-14T07:34:05.401Z,4.03
2023-06-14T07:36:33.468Z,4.25
2023-06-14T07:39:01.372Z,4.00
2023-06-14T07:41:29.587Z,4.13
2023-06-14T07:43:57.539Z,4.15
2023-06-14T07:46:26.769Z,4.30
2023-06-14T07:48:54.988Z,4.10
2023-06-14T07:51:24.402Z,4.55
2023-06-14T07:53:52.282Z,3.85
2023-06-14T07:56:20.670Z,4.20
2023-06-14T07:58:48.701Z,4.05
2023-06-14T08:01:18.083Z,4.30
2023-06-14T08:03:47.816Z,3.88
2023-06-14T08:06:15.985Z,4.15
2023-06-14T08:08:44.100Z,3.88
2023-06-14T08:11:12.016Z,3.70
2023-06-14T08:13:39.909Z,3.72
2023-06-14T08:16:07.819Z,3.95
2023-06-14T08:18:35.841Z,3.83
2023-06-14T08:21:05.414Z,3.85
2023-06-14T08:23:33.464Z,3.90
2023-06-14T08:26:02.718Z,3.60
2023-06-14T08:28:30.698Z,3.90
2023-06-14T08:30:58.518Z,4.03
2023-06-14T08:33:26.973Z,3.72
2023-06-14T08:35:54.978Z,3.50
2023-06-14T08:38:24.294Z,2.97
2023-06-14T08:40:52.978Z,3.80
2023-06-14T08:43:21.227Z,3.65
2023-06-14T08:45:51.857Z,3.15
2023-06-14T08:48:22.461Z,3.33
2023-06-14T08:50:53.485Z,3.58
2023-06-14T08:53:24.437Z,3.40
2023-06-14T08:55:54.378Z,3.38
2023-06-14T08:58:25.531Z,3.70
2023-06-14T09:00:53.747Z,4.00
2023-06-14T09:03:21.934Z,3.92
2023-06-14T09:05:51.152Z,3.80
2023-06-14T09:08:20.275Z,3.80
2023-06-14T09:10:49.609Z,3.25
2023-06-14T09:13:19.429Z,3.95
2023-06-14T09:15:47.374Z,3.72
2023-06-14T09:18:15.293Z,3.50
2023-06-14T09:20:43.278Z,4.00
2023-06-14T09:23:11.590Z,3.22
2023-06-14T09:25:46.581Z,3.90
2023-06-14T09:28:16.539Z,3.90
2023-06-14T09:30:44.696Z,3.38
2023-06-14T09:33:13.420Z,3.53
2023-06-14T09:35:41.335Z,3.67
2023-06-14T09:38:09.452Z,3.60
2023-06-14T09:40:40.377Z,3.47
2023-06-14T09:43:09.369Z,3.53
2023-06-14T09:45:40.512Z,3.30
2023-06-14T09:48:09.272Z,3.30
2023-06-14T09:50:37.309Z,3.75
2023-06-14T09:53:07.785Z,3.67
2023-06-14T09:55:37.248Z,3.67
2023-06-14T09:58:06.893Z,3.28
2023-06-14T10:00:36.071Z,3.30
2023-06-14T10:03:08.911Z,3.42
2023-06-14T10:05:38.127Z,3.65
2023-06-14T10:08:07.025Z,3.13
2023-06-14T10:10:35.168Z,3.75
2023-06-14T10:13:03.229Z,3.10
2023-06-14T10:15:34.371Z,3.83
2023-06-14T10:18:06.700Z,3.33
2023-06-14T10:20:39.716Z,3.08
2023-06-14T10:23:10.768Z,3.55
2023-06-14T10:25:38.767Z,3.58
2023-06-14T10:28:19.284Z,3.50
2023-06-14T10:31:09.146Z,3.45
2023-06-14T10:33:37.591Z,3.10
2023-06-14T10:36:24.123Z,3.55
2023-06-14T10:39:00.575Z,3.45
2023-06-14T10:41:29.545Z,3.13
2023-06-14T10:44:18.546Z,3.38
2023-06-14T10:46:48.421Z,3.47
2023-06-14T10:49:18.619Z,3.50
2023-06-14T10:51:47.590Z,3.60
2023-06-14T10:54:16.982Z,3.97
2023-06-14T10:56:49.874Z,3.42
2023-06-14T10:59:18.674Z,3.72
2023-06-14T11:01:56.307Z,4.22
2023-06-14T11:04:26.373Z,3.70
2023-06-14T11:06:57.600Z,3.47
2023-06-14T11:09:42.307Z,3.63
2023-06-14T11:12:12.488Z,3.30
2023-06-14T11:14:40.655Z,3.58
2023-06-14T11:17:08.723Z,3.75
2023-06-14T11:19:37.295Z,3.30
2023-06-14T11:22:05.286Z,3.40
2023-06-14T11:24:35.805Z,3.92
2023-06-14T11:27:04.306Z,3.30
2023-06-14T11:29:32.979Z,3.28
2023-06-14T11:32:01.126Z,3.75
2023-06-14T11:34:29.293Z,3.50
2023-06-14T11:36:57.599Z,3.67
2023-06-14T11:39:27.350Z,3.72
2023-06-14T11:41:56.783Z,3.60
2023-06-14T11:44:24.829Z,3.63
2023-06-14T11:46:52.822Z,3.60
2023-06-14T11:49:20.752Z,4.18
2023-06-14T11:51:49.154Z,3.63
2023-06-14T11:54:17.361Z,3.65
2023-06-14T11:56:45.505Z,3.20
2023-06-14T11:59:15.623Z,3.85
2023-06-14T12:01:45.133Z,3.80
2023-06-14T12:04:13.012Z,3.20
2023-06-14T12:06:41.704Z,3.72
2023-06-14T12:09:14.008Z,3.60
2023-06-14T12:11:42.873Z,3.50
2023-06-14T12:14:11.693Z,3.17
2023-06-14T12:16:42.772Z,3.15
2023-06-14T12:19:12.514Z,3.22
2023-06-14T12:21:41.492Z,3.60
2023-06-14T12:24:09.906Z,3.40
2023-06-14T12:26:40.550Z,3.45
2023-06-14T12:29:09.038Z,3.60
2023-06-14T12:31:36.962Z,3.03
2023-06-14T12:34:06.302Z,3.30
2023-06-14T12:36:35.136Z,3.05
2023-06-14T12:39:03.098Z,3.03
2023-06-14T12:41:31.050Z,3.42
2023-06-14T12:44:00.872Z,3.55
2023-06-14T12:46:28.774Z,3.10
2023-06-14T12:48:56.750Z,3.67
2023-06-14T12:51:26.568Z,3.53
2023-06-14T12:53:54.965Z,3.53
2023-06-14T12:56:24.915Z,3.22
2023-06-14T12:58:53.022Z,3.53
2023-06-14T13:01:21.100Z,3.65
2023-06-14T13:03:49.240Z,3.33
2023-06-14T13:06:17.157Z,3.60
2023-06-14T13:08:46.813Z,2.95
2023-06-14T13:11:14.755Z,3.15
2023-06-14T13:13:42.730Z,3.47
2023-06-14T13:16:19.529Z,3.00
2023-06-14T13:18:47.589Z,3.50
2023-06-14T13:21:16.131Z,3.13
2023-06-14T13:23:44.100Z,3.60
2023-06-14T13:26:13.430Z,3.25
2023-06-14T13:28:41.530Z,3.45
2023-06-14T13:31:09.489Z,3.30
2023-06-14T13:33:37.270Z,3.80
2023-06-14T13:36:05.359Z,3.38
2023-06-14T13:38:33.431Z,3.10
2023-06-14T13:41:01.256Z,3.25
2023-06-14T13:43:31.438Z,3.33
2023-06-14T13:45:59.699Z,3.50
2023-06-14T13:48:27.564Z,3.55
2023-06-14T13:50:55.403Z,3.70
2023-06-14T13:53:23.214Z,3.63
2023-06-14T13:55:51.155Z,3.20
2023-06-14T13:58:18.988Z,3.67
2023-06-14T14:00:48.637Z,3.47
2023-06-14T14:03:16.434Z,3.33
2023-06-14T14:05:44.382Z,3.28
2023-06-14T14:08:12.342Z,3.30
2023-06-14T14:10:40.296Z,6.00
2023-06-14T14:13:08.113Z,3.22
2023-06-14T14:15:36.230Z,3.40
2023-06-14T14:18:06.414Z,3.03
2023-06-14T14:20:34.324Z,3.10
2023-06-14T14:23:03.081Z,3.15
2023-06-14T14:25:31.085Z,3.60
2023-06-14T14:27:58.944Z,3.03
2023-06-14T14:30:27.575Z,3.28
2023-06-14T14:32:55.924Z,3.50
2023-06-14T14:35:27.179Z,3.50
2023-06-14T14:37:55.104Z,3.15
2023-06-14T14:40:23.115Z,2.85
2023-06-14T14:42:51.006Z,3.22
2023-06-14T14:45:18.950Z,3.38
2023-06-14T14:47:46.850Z,3.22
2023-06-14T14:50:15.081Z,3.17
2023-06-14T14:52:44.669Z,4.93
2023-06-14T14:55:12.622Z,3.28
2023-06-14T14:57:41.050Z,3.10
2023-06-14T15:00:09.304Z,3.38
2023-06-14T15:02:37.243Z,3.25
2023-06-14T15:05:05.742Z,3.47
2023-06-14T15:07:34.618Z,3.38
2023-06-14T15:10:03.893Z,2.90
2023-06-14T15:12:33.040Z,3.03
2023-06-14T15:15:00.921Z,3.00
2023-06-14T15:17:29.180Z,3.20
2023-06-14T15:19:57.615Z,3.28
2023-06-14T15:22:27.780Z,2.80
2023-06-14T15:24:55.708Z,3.05
2023-06-14T15:27:25.792Z,3.08
2023-06-14T15:29:54.297Z,2.75
2023-06-14T15:32:22.410Z,3.20
2023-06-14T15:34:50.470Z,4.18
2023-06-14T15:37:18.472Z,3.00
2023-06-14T15:39:46.370Z,3.28
2023-06-14T15:42:14.216Z,2.72
2023-06-14T15:44:43.629Z,2.92
2023-06-14T15:47:11.588Z,3.05
2023-06-14T15:49:39.758Z,2.92
2023-06-14T15:52:08.084Z,3.28
2023-06-14T15:54:36.218Z,3.17
2023-06-14T15:57:04.679Z,3.00
2023-06-14T15:59:32.491Z,2.97
2023-06-14T16:02:01.703Z,3.08
2023-06-14T16:04:29.801Z,3.00
2023-06-14T16:06:57.664Z,2.90
2023-06-14T16:09:26.625Z,2.80
2023-06-14T16:11:55.968Z,2.97
2023-06-14T16:14:23.832Z,2.70
2023-06-14T16:16:53.550Z,2.92
2023-06-14T16:19:23.177Z,3.00
2023-06-14T16:21:51.495Z,3.20
2023-06-14T16:24:19.907Z,3.03
2023-06-14T16:26:47.884Z,2.97
2023-06-14T16:29:16.060Z,3.00
2023-06-14T16:31:44.218Z,3.15
2023-06-14T16:34:15.773Z,3.28
2023-06-14T16:36:45.313Z,3.40
2023-06-14T16:39:15.388Z,2.95
2023-06-14T16:41:45.198Z,3.00
2023-06-14T16:44:13.348Z,3.95
2023-06-14T16:46:43.513Z,3.20
2023-06-14T16:49:11.625Z,3.13
2023-06-14T16:51:39.500Z,3.60
2023-06-14T16:54:09.166Z,3.72
2023-06-14T16:56:37.907Z,3.00
2023-06-14T16:59:06.464Z,2.90
2023-06-14T17:01:35.730Z,3.40
2023-06-14T17:04:03.907Z,3.03
2023-06-14T17:06:32.011Z,3.17
2023-06-14T17:09:01.137Z,3.33
2023-06-14T17:11:30.462Z,2.95
2023-06-14T17:13:58.669Z,3.17
2023-06-14T17:16:26.569Z,3.45
2023-06-14T17:18:57.107Z,3.00
2023-06-14T17:21:25.205Z,3.25
2023-06-14T17:23:53.110Z,3.13
2023-06-14T17:26:20.966Z,3.30
2023-06-14T17:28:52.862Z,4.72
2023-06-14T17:31:21.193Z,3.35
2023-06-14T17:33:49.964Z,3.15
2023-06-14T17:36:19.190Z,3.20
2023-06-14T17:38:47.077Z,3.72
2023-06-14T17:41:15.421Z,3.60
2023-06-14T17:43:43.261Z,3.35
2023-06-14T17:46:12.505Z,3.17
2023-06-14T17:48:40.377Z,3.30
2023-06-14T17:51:08.536Z,3.67
2023-06-14T17:53:36.440Z,3.03
2023-06-14T17:56:05.193Z,3.72
2023-06-14T17:58:33.024Z,2.88
2023-06-14T18:01:00.989Z,3.67
2023-06-14T18:03:30.453Z,4.30
2023-06-14T18:06:00.660Z,3.83
2023-06-14T18:08:28.528Z,3.35
2023-06-14T18:10:56.325Z,3.92
2023-06-14T18:13:25.911Z,3.55
2023-06-14T18:15:53.861Z,3.58
2023-06-14T18:18:21.817Z,3.85
2023-06-14T18:20:51.391Z,4.55
2023-06-14T18:23:19.268Z,3.72
2023-06-14T18:25:47.139Z,3.85
2023-06-14T18:28:15.019Z,3.67
2023-06-14T18:30:42.869Z,4.00
2023-06-14T18:33:10.855Z,3.70
2023-06-14T18:35:41.829Z,3.42
2023-06-14T18:38:12.789Z,3.40
2023-06-14T18:40:42.388Z,3.47
2023-06-14T18:43:12.738Z,3.58
2023-06-14T18:45:41.217Z,3.63
2023-06-14T18:48:09.202Z,3.88
2023-06-14T18:50:37.968Z,3.90
2023-06-14T18:53:05.890Z,3.70
2023-06-14T18:55:35.171Z,9.60
2023-06-14T18:58:04.003Z,4.60
2023-06-14T19:00:32.852Z,3.90
2023-06-14T19:03:01.041Z,4.07
2023-06-14T19:05:28.905Z,3.97
2023-06-14T19:07:56.803Z,4.70
2023-06-14T19:10:27.718Z,4.00
2023-06-14T19:12:56.938Z,4.30
2023-06-14T19:15:24.890Z,4.05
2023-06-14T19:17:56.348Z,4.00
2023-06-14T19:20:25.828Z,4.28
2023-06-14T19:22:53.664Z,4.07
2023-06-14T19:25:21.569Z,5.82
2023-06-14T19:27:49.519Z,5.20
2023-06-14T19:30:18.811Z,4.20
2023-06-14T19:32:49.431Z,4.80
2023-06-14T19:35:18.969Z,5.22
2023-06-14T19:37:48.922Z,4.82
2023-06-14T19:40:17.107Z,4.10
2023-06-14T19:42:47.098Z,4.30
2023-06-14T19:45:15.295Z,4.80
2023-06-14T19:47:46.026Z,4.80
2023-06-14T19:50:15.251Z,4.00
2023-06-14T19:52:43.493Z,4.30
2023-06-14T19:55:11.804Z,4.50
2023-06-14T19:57:39.580Z,4.68
2023-06-14T20:00:09.130Z,4.55
2023-06-14T20:02:38.520Z,4.60
2023-06-14T20:05:09.195Z,4.25
2023-06-14T20:07:37.236Z,4.68
2023-06-14T20:10:05.238Z,4.55
2023-06-14T20:12:33.045Z,4.45
2023-06-14T20:15:01.040Z,4.43
2023-06-14T20:17:28.853Z,4.22
2023-06-14T20:19:56.718Z,4.40
2023-06-14T20:22:25.964Z,4.40
2023-06-14T20:24:53.865Z,4.40
2023-06-14T20:27:21.757Z,4.63
2023-06-14T20:29:49.589Z,5.85
2023-06-14T20:32:17.512Z,4.57
2023-06-14T20:34:45.549Z,4.63
2023-06-14T20:37:13.732Z,4.82
2023-06-14T20:39:42.955Z,5.00
2023-06-14T20:42:21.369Z,7.00
2023-06-14T20:44:55.574Z,5.30
2023-06-14T20:47:24.201Z,5.25
2023-06-14T20:49:53.126Z,4.95
2023-06-14T20:52:21.066Z,4.68
2023-06-14T20:54:50.365Z,6.13
2023-06-14T20:57:18.988Z,7.45
2023-06-14T20:59:47.313Z,5.03
2023-06-14T21:02:18.748Z,4.82
2023-06-14T21:04:47.252Z,5.22
2023-06-14T21:07:15.620Z,4.82
2023-06-14T21:09:43.969Z,5.03
2023-06-14T21:12:13.710Z,5.30
2023-06-14T21:14:41.811Z,5.07
2023-06-14T21:17:10.382Z,4.80
2023-06-14T21:19:38.655Z,4.68
2023-06-14T21:22:06.856Z,4.78
2023-06-14T21:24:36.430Z,4.53
2023-06-14T21:27:04.505Z,5.03
2023-06-14T21:29:33.677Z,4.45
2023-06-14T21:32:01.872Z,4.50
2023-06-14T21:34:29.992Z,5.13
2023-06-14T21:36:58.173Z,4.85
2023-06-14T21:39:26.151Z,5.15
2023-06-14T21:41:55.567Z,5.45
2023-06-14T21:44:23.642Z,5.10
2023-06-14T21:46:54.560Z,5.70
2023-06-14T21:49:22.394Z,6.10
2023-06-14T21:51:50.332Z,5.60
2023-06-14T21:54:18.182Z,5.07
2023-06-14T21:56:46.689Z,4.90
2023-06-14T21:59:14.609Z,5.07
2023-06-14T22:01:42.486Z,5.20
2023-06-14T22:04:11.676Z,4.97
2023-06-14T22:06:44.739Z,5.13
2023-06-14T22:09:14.745Z,5.28
2023-06-14T22:11:43.441Z,5.30
2023-06-14T22:14:11.573Z,5.38
2023-06-14T22:16:40.211Z,5.18
2023-06-14T22:19:08.559Z,5.55
2023-06-14T22:21:37.926Z,5.75
2023-06-14T22:24:07.022Z,5.18
2023-06-14T22:26:48.132Z,5.53
2023-06-14T22:29:17.858Z,5.60
2023-06-14T22:31:46.176Z,6.03
2023-06-14T22:34:14.097Z,5.18
2023-06-14T22:36:44.178Z,5.97
2023-06-14T22:39:13.022Z,5.28
2023-06-14T22:41:41.086Z,5.13
2023-06-14T22:44:09.084Z,5.43
2023-06-14T22:46:37.093Z,5.22
2023-06-14T22:49:07.180Z,5.00
2023-06-14T22:51:35.432Z,4.97
2023-06-14T22:54:04.821Z,5.88
2023-06-14T22:56:33.164Z,5.47
2023-06-14T22:59:03.213Z,5.70
2023-06-14T23:01:31.182Z,5.88
2023-06-14T23:03:59.266Z,5.75
2023-06-14T23:06:27.308Z,5.70
2023-06-14T23:08:56.963Z,5.80
2023-06-14T23:11:26.428Z,6.03
2023-06-14T23:13:55.395Z,5.60
2023-06-14T23:16:24.801Z,6.10
2023-06-14T23:18:52.904Z,5.80
2023-06-14T23:21:22.156Z,5.38
2023-06-14T23:23:51.416Z,5.80
2023-06-14T23:26:22.277Z,5.82
2023-06-14T23:28:55.093Z,6.10
2023-06-14T23:31:23.842Z,6.13
2023-06-14T23:33:54.078Z,5.82
2023-06-14T23:36:22.287Z,6.38
2023-06-14T23:38:50.332Z,6.45
2023-06-14T23:41:18.648Z,6.50
2023-06-14T23:43:47.019Z,6.03
2023-06-14T23:46:17.086Z,6.90
2023-06-14T23:48:45.176Z,6.40
2023-06-14T23:51:12.986Z,6.05
2023-06-14T23:53:41.824Z,6.10
2023-06-14T23:56:11.669Z,6.07
2023-06-14T23:58:40.001Z,5.75
